sensor_id;sensor_type;location;lat;lon;timestamp;pressure;altitude;pressure_sealevel;temperature;humidity
73245;BME280;61460;41.158;-73.238;2023-05-20T00:01:32;102423.67;;;22.98;44.67
73245;BME280;61460;41.158;-73.238;2023-05-20T00:04:01;102422.46;;;22.90;44.91
73245;BME280;61460;41.158;-73.238;2023-05-20T00:06:32;102424.79;;;22.97;44.78
73245;BME280;61460;41.158;-73.238;2023-05-20T00:09:02;102421.31;;;23.00;44.70
73245;BME280;61460;41.158;-73.238;2023-05-20T00:11:32;102418.68;;;22.87;45.00
73245;BME280;61460;41.158;-73.238;2023-05-20T00:14:02;102416.21;;;22.98;44.81
73245;BME280;61460;41.158;-73.238;2023-05-20T00:16:33;102415.55;;;23.07;44.64
73245;BME280;61460;41.158;-73.238;2023-05-20T00:19:03;102422.48;;;23.02;44.71
73245;BME280;61460;41.158;-73.238;2023-05-20T00:21:33;102421.01;;;22.90;44.96
73245;BME280;61460;41.158;-73.238;2023-05-20T00:24:04;102423.73;;;22.91;44.81
73245;BME280;61460;41.158;-73.238;2023-05-20T00:26:34;102424.39;;;22.99;44.67
73245;BME280;61460;41.158;-73.238;2023-05-20T00:29:05;102429.78;;;22.90;44.77
73245;BME280;61460;41.158;-73.238;2023-05-20T00:31:36;102432.26;;;22.94;44.62
73245;BME280;61460;41.158;-73.238;2023-05-20T00:34:06;102432.29;;;23.05;44.38
73245;BME280;61460;41.158;-73.238;2023-05-20T00:36:37;102441.63;;;22.99;44.54
73245;BME280;61460;41.158;-73.238;2023-05-20T00:39:08;102444.97;;;23.08;44.34
73245;BME280;61460;41.158;-73.238;2023-05-20T00:41:38;102448.92;;;23.06;44.37
73245;BME280;61460;41.158;-73.238;2023-05-20T00:44:08;102447.95;;;23.04;44.41
73245;BME280;61460;41.158;-73.238;2023-05-20T00:46:39;102446.23;;;23.14;44.18
73245;BME280;61460;41.158;-73.238;2023-05-20T00:49:09;102445.19;;;23.11;44.40
73245;BME280;61460;41.158;-73.238;2023-05-20T00:51:40;102448.52;;;23.06;44.52
73245;BME280;61460;41.158;-73.238;2023-05-20T00:54:10;102453.32;;;23.14;44.34
73245;BME280;61460;41.158;-73.238;2023-05-20T00:56:41;102451.86;;;23.08;45.29
73245;BME280;61460;41.158;-73.238;2023-05-20T00:59:11;102456.13;;;23.14;45.42
73245;BME280;61460;41.158;-73.238;2023-05-20T01:01:42;102462.55;;;23.09;45.59
73245;BME280;61460;41.158;-73.238;2023-05-20T01:04:13;102465.47;;;23.06;45.76
73245;BME280;61460;41.158;-73.238;2023-05-20T01:06:44;102462.97;;;23.19;45.75
73245;BME280;61460;41.158;-73.238;2023-05-20T01:09:13;102466.19;;;22.99;46.20
73245;BME280;61460;41.158;-73.238;2023-05-20T01:11:49;102463.53;;;22.89;46.66
73245;BME280;61460;41.158;-73.238;2023-05-20T01:14:15;102461.52;;;22.91;46.75
73245;BME280;61460;41.158;-73.238;2023-05-20T01:16:46;102463.18;;;22.97;46.76
73245;BME280;61460;41.158;-73.238;2023-05-20T01:19:24;102454.29;;;22.83;47.30
73245;BME280;61460;41.158;-73.238;2023-05-20T01:21:46;102454.77;;;22.93;47.14
73245;BME280;61460;41.158;-73.238;2023-05-20T01:24:16;102449.49;;;23.02;46.91
73245;BME280;61460;41.158;-73.238;2023-05-20T01:26:46;102456.94;;;23.17;46.50
73245;BME280;61460;41.158;-73.238;2023-05-20T01:29:17;102458.08;;;23.08;46.89
73245;BME280;61460;41.158;-73.238;2023-05-20T01:31:48;102458.76;;;22.96;47.46
73245;BME280;61460;41.158;-73.238;2023-05-20T01:34:18;102464.01;;;22.94;47.59
73245;BME280;61460;41.158;-73.238;2023-05-20T01:36:50;102466.90;;;23.04;47.40
73245;BME280;61460;41.158;-73.238;2023-05-20T01:39:20;102470.71;;;23.06;47.46
73245;BME280;61460;41.158;-73.238;2023-05-20T01:41:51;102469.37;;;22.92;47.85
73245;BME280;61460;41.158;-73.238;2023-05-20T01:44:21;102468.63;;;23.02;47.67
73245;BME280;61460;41.158;-73.238;2023-05-20T01:46:51;102465.40;;;23.05;47.69
73245;BME280;61460;41.158;-73.238;2023-05-20T01:49:22;102460.26;;;22.97;47.90
73245;BME280;61460;41.158;-73.238;2023-05-20T01:51:53;102463.24;;;22.93;47.93
73245;BME280;61460;41.158;-73.238;2023-05-20T01:54:23;102465.04;;;22.82;48.03
73245;BME280;61460;41.158;-73.238;2023-05-20T01:56:55;102461.22;;;22.70;48.12
73245;BME280;61460;41.158;-73.238;2023-05-20T01:59:24;102459.32;;;22.82;47.71
73245;BME280;61460;41.158;-73.238;2023-05-20T02:01:54;102465.36;;;22.63;47.95
73245;BME280;61460;41.158;-73.238;2023-05-20T02:04:25;102460.38;;;22.75;47.58
73245;BME280;61460;41.158;-73.238;2023-05-20T02:06:55;102450.94;;;22.74;47.55
73245;BME280;61460;41.158;-73.238;2023-05-20T02:09:27;102443.97;;;23.00;46.81
73245;BME280;61460;41.158;-73.238;2023-05-20T02:11:56;102439.32;;;23.11;46.74
73245;BME280;61460;41.158;-73.238;2023-05-20T02:14:26;102445.66;;;23.24;46.57
73245;BME280;61460;41.158;-73.238;2023-05-20T02:16:57;102451.26;;;23.37;46.45
73245;BME280;61460;41.158;-73.238;2023-05-20T02:19:27;102455.90;;;23.44;46.43
73245;BME280;61460;41.158;-73.238;2023-05-20T02:21:58;102456.08;;;23.42;46.54
73245;BME280;61460;41.158;-73.238;2023-05-20T02:24:29;102461.79;;;23.50;46.59
73245;BME280;61460;41.158;-73.238;2023-05-20T02:26:59;102465.42;;;23.52;46.73
73245;BME280;61460;41.158;-73.238;2023-05-20T02:29:30;102453.35;;;23.57;46.68
73245;BME280;61460;41.158;-73.238;2023-05-20T02:32:00;102450.08;;;23.56;46.67
73245;BME280;61460;41.158;-73.238;2023-05-20T02:34:31;102452.00;;;23.57;47.04
73245;BME280;61460;41.158;-73.238;2023-05-20T02:37:00;102455.20;;;23.65;46.83
73245;BME280;61460;41.158;-73.238;2023-05-20T02:39:31;102449.76;;;23.74;46.58
73245;BME280;61460;41.158;-73.238;2023-05-20T02:42:02;102445.77;;;23.64;46.97
73245;BME280;61460;41.158;-73.238;2023-05-20T02:44:32;102443.53;;;23.71;46.80
73245;BME280;61460;41.158;-73.238;2023-05-20T02:47:02;102439.53;;;23.71;46.95
73245;BME280;61460;41.158;-73.238;2023-05-20T02:49:32;102440.30;;;23.73;47.01
73245;BME280;61460;41.158;-73.238;2023-05-20T02:52:03;102444.43;;;23.69;47.19
73245;BME280;61460;41.158;-73.238;2023-05-20T02:54:34;102442.96;;;23.79;47.18
73245;BME280;61460;41.158;-73.238;2023-05-20T02:57:05;102436.75;;;23.67;47.43
73245;BME280;61460;41.158;-73.238;2023-05-20T02:59:35;102437.46;;;23.67;47.42
73245;BME280;61460;41.158;-73.238;2023-05-20T03:02:05;102435.76;;;23.73;47.31
73245;BME280;61460;41.158;-73.238;2023-05-20T03:04:36;102439.94;;;23.66;47.42
73245;BME280;61460;41.158;-73.238;2023-05-20T03:07:07;102438.06;;;23.78;47.42
73245;BME280;61460;41.158;-73.238;2023-05-20T03:09:38;102428.52;;;23.82;47.32
73245;BME280;61460;41.158;-73.238;2023-05-20T03:12:08;102423.15;;;23.85;47.21
73245;BME280;61460;41.158;-73.238;2023-05-20T03:14:39;102418.38;;;23.87;47.34
73245;BME280;61460;41.158;-73.238;2023-05-20T03:17:10;102422.37;;;23.89;47.34
73245;BME280;61460;41.158;-73.238;2023-05-20T03:19:40;102425.19;;;23.90;47.27
73245;BME280;61460;41.158;-73.238;2023-05-20T03:22:11;102418.58;;;23.83;47.44
73245;BME280;61460;41.158;-73.238;2023-05-20T03:24:41;102409.82;;;23.92;47.26
73245;BME280;61460;41.158;-73.238;2023-05-20T03:27:12;102404.80;;;23.90;47.28
73245;BME280;61460;41.158;-73.238;2023-05-20T03:29:42;102406.14;;;23.82;47.43
73245;BME280;61460;41.158;-73.238;2023-05-20T03:32:12;102399.27;;;23.84;47.38
73245;BME280;61460;41.158;-73.238;2023-05-20T03:34:42;102397.09;;;23.83;47.51
73245;BME280;61460;41.158;-73.238;2023-05-20T03:37:13;102403.63;;;23.81;47.75
73245;BME280;61460;41.158;-73.238;2023-05-20T03:39:43;102395.12;;;23.76;47.79
73245;BME280;61460;41.158;-73.238;2023-05-20T03:42:13;102392.70;;;23.79;47.94
73245;BME280;61460;41.158;-73.238;2023-05-20T03:44:43;102396.85;;;23.84;47.76
73245;BME280;61460;41.158;-73.238;2023-05-20T03:47:14;102390.57;;;23.80;48.68
73245;BME280;61460;41.158;-73.238;2023-05-20T03:49:44;102382.81;;;23.89;48.25
73245;BME280;61460;41.158;-73.238;2023-05-20T03:52:15;102375.85;;;24.02;47.92
73245;BME280;61460;41.158;-73.238;2023-05-20T03:54:45;102371.62;;;24.04;47.79
73245;BME280;61460;41.158;-73.238;2023-05-20T03:57:16;102363.86;;;23.97;47.96
73245;BME280;61460;41.158;-73.238;2023-05-20T03:59:46;102362.70;;;24.08;47.68
73245;BME280;61460;41.158;-73.238;2023-05-20T04:02:16;102353.76;;;24.09;47.62
73245;BME280;61460;41.158;-73.238;2023-05-20T04:04:47;102351.74;;;24.11;47.52
73245;BME280;61460;41.158;-73.238;2023-05-20T04:07:17;102352.75;;;24.13;47.52
73245;BME280;61460;41.158;-73.238;2023-05-20T04:09:47;102348.37;;;24.13;47.59
73245;BME280;61460;41.158;-73.238;2023-05-20T04:12:18;102341.68;;;24.02;47.83
73245;BME280;61460;41.158;-73.238;2023-05-20T04:14:48;102343.79;;;24.09;47.69
73245;BME280;61460;41.158;-73.238;2023-05-20T04:17:19;102338.51;;;24.11;47.72
73245;BME280;61460;41.158;-73.238;2023-05-20T04:19:49;102339.07;;;24.13;47.74
73245;BME280;61460;41.158;-73.238;2023-05-20T04:22:19;102330.30;;;24.08;47.88
73245;BME280;61460;41.158;-73.238;2023-05-20T04:24:50;102330.68;;;24.10;47.85
73245;BME280;61460;41.158;-73.238;2023-05-20T04:27:20;102326.44;;;24.15;47.81
73245;BME280;61460;41.158;-73.238;2023-05-20T04:29:50;102320.23;;;24.07;48.04
73245;BME280;61460;41.158;-73.238;2023-05-20T04:32:21;102320.95;;;24.12;48.10
73245;BME280;61460;41.158;-73.238;2023-05-20T04:34:52;102319.17;;;24.13;48.10
73245;BME280;61460;41.158;-73.238;2023-05-20T04:37:22;102327.34;;;24.12;48.12
73245;BME280;61460;41.158;-73.238;2023-05-20T04:39:52;102323.91;;;24.16;48.04
73245;BME280;61460;41.158;-73.238;2023-05-20T04:42:23;102321.87;;;24.07;48.33
73245;BME280;61460;41.158;-73.238;2023-05-20T04:44:53;102320.27;;;24.08;48.31
73245;BME280;61460;41.158;-73.238;2023-05-20T04:47:23;102318.02;;;24.11;48.19
73245;BME280;61460;41.158;-73.238;2023-05-20T04:49:53;102320.08;;;24.18;47.98
73245;BME280;61460;41.158;-73.238;2023-05-20T04:52:24;102318.66;;;24.14;48.18
73245;BME280;61460;41.158;-73.238;2023-05-20T04:54:55;102312.53;;;24.11;48.29
73245;BME280;61460;41.158;-73.238;2023-05-20T04:57:25;102310.22;;;24.18;47.97
73245;BME280;61460;41.158;-73.238;2023-05-20T04:59:56;102306.63;;;24.08;48.25
73245;BME280;61460;41.158;-73.238;2023-05-20T05:02:27;102298.54;;;24.10;48.19
73245;BME280;61460;41.158;-73.238;2023-05-20T05:04:57;102296.65;;;24.10;48.04
73245;BME280;61460;41.158;-73.238;2023-05-20T05:07:28;102294.08;;;24.24;47.82
73245;BME280;61460;41.158;-73.238;2023-05-20T05:09:58;102286.24;;;24.21;47.92
73245;BME280;61460;41.158;-73.238;2023-05-20T05:12:29;102284.68;;;24.08;48.22
73245;BME280;61460;41.158;-73.238;2023-05-20T05:14:59;102276.75;;;23.94;48.61
73245;BME280;61460;41.158;-73.238;2023-05-20T05:17:29;102275.20;;;24.06;48.35
73245;BME280;61460;41.158;-73.238;2023-05-20T05:19:59;102272.65;;;24.10;48.28
73245;BME280;61460;41.158;-73.238;2023-05-20T05:22:30;102274.58;;;24.19;48.09
73245;BME280;61460;41.158;-73.238;2023-05-20T05:25:01;102277.14;;;24.18;48.17
73245;BME280;61460;41.158;-73.238;2023-05-20T05:27:31;102271.14;;;24.19;48.15
73245;BME280;61460;41.158;-73.238;2023-05-20T05:30:01;102271.93;;;24.07;48.50
73245;BME280;61460;41.158;-73.238;2023-05-20T05:32:32;102261.23;;;24.05;48.69
73245;BME280;61460;41.158;-73.238;2023-05-20T05:35:02;102256.69;;;24.11;48.56
73245;BME280;61460;41.158;-73.238;2023-05-20T05:37:33;102255.48;;;24.08;48.68
73245;BME280;61460;41.158;-73.238;2023-05-20T05:40:03;102253.38;;;24.14;48.65
73245;BME280;61460;41.158;-73.238;2023-05-20T05:42:33;102246.92;;;24.15;48.54
73245;BME280;61460;41.158;-73.238;2023-05-20T05:45:04;102237.92;;;24.06;48.89
73245;BME280;61460;41.158;-73.238;2023-05-20T05:47:34;102240.24;;;24.07;48.89
73245;BME280;61460;41.158;-73.238;2023-05-20T05:50:05;102234.94;;;24.02;49.27
73245;BME280;61460;41.158;-73.238;2023-05-20T05:52:35;102230.96;;;24.07;49.20
73245;BME280;61460;41.158;-73.238;2023-05-20T05:55:07;102226.65;;;24.08;49.13
73245;BME280;61460;41.158;-73.238;2023-05-20T05:57:36;102225.58;;;24.05;49.23
73245;BME280;61460;41.158;-73.238;2023-05-20T06:00:08;102229.48;;;24.26;48.74
73245;BME280;61460;41.158;-73.238;2023-05-20T06:02:37;102231.13;;;24.18;48.90
73245;BME280;61460;41.158;-73.238;2023-05-20T06:05:08;102228.64;;;24.18;48.92
73245;BME280;61460;41.158;-73.238;2023-05-20T06:07:38;102221.24;;;24.21;48.79
73245;BME280;61460;41.158;-73.238;2023-05-20T06:10:09;102215.31;;;24.20;48.75
73245;BME280;61460;41.158;-73.238;2023-05-20T06:12:38;102204.25;;;24.18;48.85
73245;BME280;61460;41.158;-73.238;2023-05-20T06:15:10;102201.67;;;24.22;48.73
73245;BME280;61460;41.158;-73.238;2023-05-20T06:17:39;102194.41;;;24.08;50.17
73245;BME280;61460;41.158;-73.238;2023-05-20T06:20:10;102189.66;;;24.09;49.92
73245;BME280;61460;41.158;-73.238;2023-05-20T06:22:40;102194.43;;;24.15;49.92
73245;BME280;61460;41.158;-73.238;2023-05-20T06:25:11;102192.79;;;24.04;50.00
73245;BME280;61460;41.158;-73.238;2023-05-20T06:27:41;102188.46;;;24.02;50.36
73245;BME280;61460;41.158;-73.238;2023-05-20T06:30:12;102187.06;;;23.98;49.93
73245;BME280;61460;41.158;-73.238;2023-05-20T06:32:42;102181.90;;;23.97;50.16
73245;BME280;61460;41.158;-73.238;2023-05-20T06:35:13;102174.94;;;23.89;50.22
73245;BME280;61460;41.158;-73.238;2023-05-20T06:37:43;102174.95;;;24.01;50.22
73245;BME280;61460;41.158;-73.238;2023-05-20T06:40:13;102184.82;;;23.98;49.72
73245;BME280;61460;41.158;-73.238;2023-05-20T06:42:44;102180.97;;;23.97;50.13
73245;BME280;61460;41.158;-73.238;2023-05-20T06:45:14;102183.11;;;24.00;50.31
73245;BME280;61460;41.158;-73.238;2023-05-20T06:47:45;102176.89;;;24.01;49.84
73245;BME280;61460;41.158;-73.238;2023-05-20T06:50:15;102171.94;;;23.99;50.58
73245;BME280;61460;41.158;-73.238;2023-05-20T06:52:45;102173.50;;;23.92;50.25
73245;BME280;61460;41.158;-73.238;2023-05-20T06:55:16;102170.11;;;23.88;49.83
73245;BME280;61460;41.158;-73.238;2023-05-20T06:57:46;102161.82;;;23.89;50.30
73245;BME280;61460;41.158;-73.238;2023-05-20T07:00:17;102158.58;;;23.91;50.16
73245;BME280;61460;41.158;-73.238;2023-05-20T07:02:47;102158.19;;;23.86;50.97
73245;BME280;61460;41.158;-73.238;2023-05-20T07:05:18;102158.31;;;23.75;50.53
73245;BME280;61460;41.158;-73.238;2023-05-20T07:07:49;102158.17;;;23.74;50.99
73245;BME280;61460;41.158;-73.238;2023-05-20T07:10:19;102156.67;;;23.92;49.82
73245;BME280;61460;41.158;-73.238;2023-05-20T07:12:50;102156.69;;;23.86;50.43
73245;BME280;61460;41.158;-73.238;2023-05-20T07:15:20;102157.59;;;23.84;50.42
73245;BME280;61460;41.158;-73.238;2023-05-20T07:17:51;102163.48;;;23.90;49.75
73245;BME280;61460;41.158;-73.238;2023-05-20T07:20:21;102154.77;;;23.78;50.65
73245;BME280;61460;41.158;-73.238;2023-05-20T07:22:51;102157.19;;;23.76;50.54
73245;BME280;61460;41.158;-73.238;2023-05-20T07:25:21;102157.82;;;23.78;50.60
73245;BME280;61460;41.158;-73.238;2023-05-20T07:27:52;102156.18;;;23.81;50.65
73245;BME280;61460;41.158;-73.238;2023-05-20T07:30:22;102155.99;;;23.81;50.07
73245;BME280;61460;41.158;-73.238;2023-05-20T07:32:52;102153.80;;;23.78;50.32
73245;BME280;61460;41.158;-73.238;2023-05-20T07:35:23;102145.62;;;23.70;50.43
73245;BME280;61460;41.158;-73.238;2023-05-20T07:37:54;102144.91;;;23.87;49.98
73245;BME280;61460;41.158;-73.238;2023-05-20T07:40:24;102139.52;;;23.86;50.01
73245;BME280;61460;41.158;-73.238;2023-05-20T07:42:54;102133.57;;;23.87;50.28
73245;BME280;61460;41.158;-73.238;2023-05-20T07:45:25;102133.53;;;23.87;50.46
73245;BME280;61460;41.158;-73.238;2023-05-20T07:47:55;102133.98;;;24.00;49.78
73245;BME280;61460;41.158;-73.238;2023-05-20T07:50:26;102134.04;;;24.01;49.70
73245;BME280;61460;41.158;-73.238;2023-05-20T07:52:56;102128.75;;;23.83;50.26
73245;BME280;61460;41.158;-73.238;2023-05-20T07:55:26;102124.82;;;23.89;49.90
73245;BME280;61460;41.158;-73.238;2023-05-20T07:57:57;102122.04;;;23.94;49.76
73245;BME280;61460;41.158;-73.238;2023-05-20T08:00:27;102120.01;;;24.07;49.49
73245;BME280;61460;41.158;-73.238;2023-05-20T08:02:58;102114.07;;;24.06;49.49
73245;BME280;61460;41.158;-73.238;2023-05-20T08:05:28;102113.26;;;24.06;49.54
73245;BME280;61460;41.158;-73.238;2023-05-20T08:07:59;102116.76;;;24.01;49.62
73245;BME280;61460;41.158;-73.238;2023-05-20T08:10:29;102113.24;;;24.09;49.45
73245;BME280;61460;41.158;-73.238;2023-05-20T08:13:00;102106.77;;;24.06;49.60
73245;BME280;61460;41.158;-73.238;2023-05-20T08:15:30;102114.41;;;24.14;49.41
73245;BME280;61460;41.158;-73.238;2023-05-20T08:18:01;102112.88;;;24.11;49.43
73245;BME280;61460;41.158;-73.238;2023-05-20T08:20:31;102108.62;;;24.07;49.54
73245;BME280;61460;41.158;-73.238;2023-05-20T08:23:02;102104.40;;;24.11;49.45
73245;BME280;61460;41.158;-73.238;2023-05-20T08:25:32;102105.10;;;24.08;49.46
73245;BME280;61460;41.158;-73.238;2023-05-20T08:28:03;102105.85;;;24.18;49.23
73245;BME280;61460;41.158;-73.238;2023-05-20T08:30:33;102109.20;;;24.08;49.54
73245;BME280;61460;41.158;-73.238;2023-05-20T08:33:03;102103.32;;;24.12;49.37
73245;BME280;61460;41.158;-73.238;2023-05-20T08:35:34;102106.73;;;24.14;49.29
73245;BME280;61460;41.158;-73.238;2023-05-20T08:38:04;102103.23;;;24.11;49.30
73245;BME280;61460;41.158;-73.238;2023-05-20T08:40:35;102101.95;;;24.08;49.38
73245;BME280;61460;41.158;-73.238;2023-05-20T08:43:05;102097.65;;;24.10;49.27
73245;BME280;61460;41.158;-73.238;2023-05-20T08:45:37;102094.32;;;24.08;49.31
73245;BME280;61460;41.158;-73.238;2023-05-20T08:48:06;102092.36;;;24.13;49.18
73245;BME280;61460;41.158;-73.238;2023-05-20T08:50:38;102091.76;;;24.07;49.25
73245;BME280;61460;41.158;-73.238;2023-05-20T08:53:08;102089.73;;;24.04;49.34
73245;BME280;61460;41.158;-73.238;2023-05-20T08:55:42;102088.92;;;24.10;49.17
73245;BME280;61460;41.158;-73.238;2023-05-20T08:58:09;102090.36;;;24.18;48.94
73245;BME280;61460;41.158;-73.238;2023-05-20T09:00:39;102086.19;;;24.16;48.97
73245;BME280;61460;41.158;-73.238;2023-05-20T09:03:09;102085.47;;;24.10;49.04
73245;BME280;61460;41.158;-73.238;2023-05-20T09:05:40;102087.28;;;24.10;49.09
73245;BME280;61460;41.158;-73.238;2023-05-20T09:08:11;102090.41;;;24.10;49.05
73245;BME280;61460;41.158;-73.238;2023-05-20T09:10:41;102088.09;;;24.14;49.00
73245;BME280;61460;41.158;-73.238;2023-05-20T09:13:11;102084.62;;;24.03;49.44
73245;BME280;61460;41.158;-73.238;2023-05-20T09:15:41;102081.18;;;24.07;49.25
73245;BME280;61460;41.158;-73.238;2023-05-20T09:18:12;102078.23;;;24.13;49.11
73245;BME280;61460;41.158;-73.238;2023-05-20T09:20:50;102075.86;;;24.10;49.20
73245;BME280;61460;41.158;-73.238;2023-05-20T09:23:13;102078.36;;;24.03;49.32
73245;BME280;61460;41.158;-73.238;2023-05-20T09:25:43;102080.53;;;24.03;49.49
73245;BME280;61460;41.158;-73.238;2023-05-20T09:28:13;102084.85;;;24.04;49.39
73245;BME280;61460;41.158;-73.238;2023-05-20T09:30:44;102091.64;;;24.06;49.37
73245;BME280;61460;41.158;-73.238;2023-05-20T09:33:14;102087.69;;;24.02;49.69
73245;BME280;61460;41.158;-73.238;2023-05-20T09:35:45;102081.84;;;24.06;49.51
73245;BME280;61460;41.158;-73.238;2023-05-20T09:38:16;102080.58;;;23.89;50.52
73245;BME280;61460;41.158;-73.238;2023-05-20T09:40:46;102082.25;;;23.99;49.69
73245;BME280;61460;41.158;-73.238;2023-05-20T09:43:16;102081.18;;;23.86;50.34
73245;BME280;61460;41.158;-73.238;2023-05-20T09:45:46;102086.98;;;23.85;50.60
73245;BME280;61460;41.158;-73.238;2023-05-20T09:48:16;102089.96;;;23.85;50.07
73245;BME280;61460;41.158;-73.238;2023-05-20T09:50:47;102076.66;;;23.91;50.21
73245;BME280;61460;41.158;-73.238;2023-05-20T09:53:16;102072.78;;;23.93;49.63
73245;BME280;61460;41.158;-73.238;2023-05-20T09:55:47;102066.68;;;23.80;50.52
73245;BME280;61460;41.158;-73.238;2023-05-20T09:58:18;102064.27;;;23.80;49.90
73245;BME280;61460;41.158;-73.238;2023-05-20T10:00:47;102065.52;;;23.84;49.85
73245;BME280;61460;41.158;-73.238;2023-05-20T10:03:21;102060.25;;;23.88;50.72
73245;BME280;61460;41.158;-73.238;2023-05-20T10:05:56;102061.40;;;23.90;49.95
73245;BME280;61460;41.158;-73.238;2023-05-20T10:08:30;102069.91;;;23.86;49.77
73245;BME280;61460;41.158;-73.238;2023-05-20T10:10:55;102065.70;;;23.88;49.60
73245;BME280;61460;41.158;-73.238;2023-05-20T10:13:31;102062.69;;;24.00;49.32
73245;BME280;61460;41.158;-73.238;2023-05-20T10:15:56;102057.83;;;23.97;49.42
73245;BME280;61460;41.158;-73.238;2023-05-20T10:18:29;102068.06;;;23.92;49.45
73245;BME280;61460;41.158;-73.238;2023-05-20T10:20:50;102073.10;;;23.93;49.30
73245;BME280;61460;41.158;-73.238;2023-05-20T10:23:21;102073.84;;;23.97;49.11
73245;BME280;61460;41.158;-73.238;2023-05-20T10:25:51;102070.29;;;23.93;49.07
73245;BME280;61460;41.158;-73.238;2023-05-20T10:28:28;102065.85;;;23.99;48.84
73245;BME280;61460;41.158;-73.238;2023-05-20T10:30:51;102064.13;;;24.04;48.72
73245;BME280;61460;41.158;-73.238;2023-05-20T10:33:23;102064.13;;;23.96;48.78
73245;BME280;61460;41.158;-73.238;2023-05-20T10:35:53;102061.90;;;23.97;48.77
73245;BME280;61460;41.158;-73.238;2023-05-20T10:38:22;102069.35;;;24.05;48.57
73245;BME280;61460;41.158;-73.238;2023-05-20T10:40:53;102064.18;;;24.05;48.55
73245;BME280;61460;41.158;-73.238;2023-05-20T10:43:26;102067.44;;;24.13;48.29
73245;BME280;61460;41.158;-73.238;2023-05-20T10:45:56;102062.79;;;24.10;48.42
73245;BME280;61460;41.158;-73.238;2023-05-20T10:48:25;102059.73;;;24.00;48.69
73245;BME280;61460;41.158;-73.238;2023-05-20T10:50:55;102059.14;;;24.14;48.31
73245;BME280;61460;41.158;-73.238;2023-05-20T10:53:26;102059.45;;;24.05;48.76
73245;BME280;61460;41.158;-73.238;2023-05-20T10:55:56;102057.43;;;24.11;48.48
73245;BME280;61460;41.158;-73.238;2023-05-20T10:58:35;102055.81;;;24.10;48.47
73245;BME280;61460;41.158;-73.238;2023-05-20T11:00:58;102054.15;;;24.15;48.22
73245;BME280;61460;41.158;-73.238;2023-05-20T11:03:29;102052.88;;;24.08;48.42
73245;BME280;61460;41.158;-73.238;2023-05-20T11:05:59;102055.00;;;24.09;48.41
73245;BME280;61460;41.158;-73.238;2023-05-20T11:08:30;102050.43;;;24.09;48.47
73245;BME280;61460;41.158;-73.238;2023-05-20T11:10:59;102038.46;;;24.11;48.32
73245;BME280;61460;41.158;-73.238;2023-05-20T11:13:30;102029.81;;;24.20;48.04
73245;BME280;61460;41.158;-73.238;2023-05-20T11:16:00;102023.56;;;24.16;48.09
73245;BME280;61460;41.158;-73.238;2023-05-20T11:18:31;102021.08;;;24.19;47.98
73245;BME280;61460;41.158;-73.238;2023-05-20T11:21:01;102019.26;;;24.13;48.04
73245;BME280;61460;41.158;-73.238;2023-05-20T11:23:31;102026.04;;;24.22;47.74
73245;BME280;61460;41.158;-73.238;2023-05-20T11:26:02;102024.31;;;24.02;48.17
73245;BME280;61460;41.158;-73.238;2023-05-20T11:28:34;102024.82;;;24.08;47.98
73245;BME280;61460;41.158;-73.238;2023-05-20T11:31:03;102024.71;;;24.19;47.69
73245;BME280;61460;41.158;-73.238;2023-05-20T11:33:33;102026.77;;;24.15;47.66
73245;BME280;61460;41.158;-73.238;2023-05-20T11:36:04;102026.87;;;24.22;47.43
73245;BME280;61460;41.158;-73.238;2023-05-20T11:38:34;102017.93;;;24.17;47.57
73245;BME280;61460;41.158;-73.238;2023-05-20T11:41:05;102024.08;;;24.15;47.64
73245;BME280;61460;41.158;-73.238;2023-05-20T11:43:35;102021.45;;;24.24;47.34
73245;BME280;61460;41.158;-73.238;2023-05-20T11:46:06;102025.63;;;24.20;47.39
73245;BME280;61460;41.158;-73.238;2023-05-20T11:48:36;102024.67;;;24.18;47.48
73245;BME280;61460;41.158;-73.238;2023-05-20T11:51:07;102031.85;;;24.21;47.43
73245;BME280;61460;41.158;-73.238;2023-05-20T11:53:39;102035.26;;;24.22;47.40
73245;BME280;61460;41.158;-73.238;2023-05-20T11:56:07;102031.88;;;24.09;47.92
73245;BME280;61460;41.158;-73.238;2023-05-20T11:58:38;102030.13;;;24.21;47.65
73245;BME280;61460;41.158;-73.238;2023-05-20T12:01:08;102023.17;;;24.15;48.00
73245;BME280;61460;41.158;-73.238;2023-05-20T12:03:39;102028.04;;;24.20;47.90
73245;BME280;61460;41.158;-73.238;2023-05-20T12:06:11;102029.41;;;24.24;48.01
73245;BME280;61460;41.158;-73.238;2023-05-20T12:08:39;102021.91;;;24.18;48.03
73245;BME280;61460;41.158;-73.238;2023-05-20T12:11:09;102023.06;;;24.21;47.95
73245;BME280;61460;41.158;-73.238;2023-05-20T12:13:40;102017.46;;;24.23;47.88
73245;BME280;61460;41.158;-73.238;2023-05-20T12:16:10;102013.55;;;24.20;47.95
73245;BME280;61460;41.158;-73.238;2023-05-20T12:18:41;102017.74;;;24.16;48.06
73245;BME280;61460;41.158;-73.238;2023-05-20T12:21:11;102013.31;;;24.22;47.97
73245;BME280;61460;41.158;-73.238;2023-05-20T12:23:42;102018.26;;;24.28;47.74
73245;BME280;61460;41.158;-73.238;2023-05-20T12:26:13;102018.46;;;24.30;47.51
73245;BME280;61460;41.158;-73.238;2023-05-20T12:28:43;102017.67;;;24.25;47.49
73245;BME280;61460;41.158;-73.238;2023-05-20T12:31:14;102017.31;;;24.24;47.39
73245;BME280;61460;41.158;-73.238;2023-05-20T12:33:44;102017.36;;;24.31;47.09
73245;BME280;61460;41.158;-73.238;2023-05-20T12:36:14;102017.79;;;24.18;47.29
73245;BME280;61460;41.158;-73.238;2023-05-20T12:38:45;102020.30;;;24.12;47.54
73245;BME280;61460;41.158;-73.238;2023-05-20T12:41:16;102012.86;;;24.10;47.46
73245;BME280;61460;41.158;-73.238;2023-05-20T12:43:46;102010.70;;;24.18;47.33
73245;BME280;61460;41.158;-73.238;2023-05-20T12:46:17;102012.97;;;24.25;47.14